Terminal Aerodrome Forecast
Issued by NWS Charleston, WV

Current Version | Previous Version | Graphics & Text | Print | Product List | Glossary On
Versions: 1 2 3 4 5 6 7 8 9 10 11 12 13 14 15 16 17 18 19 20 21 22
984
FTUS41 KRLX 212320
TAFPKB
TAF
KPKB 212320Z 2200/2224 32006KT P6SM BKN150
     FM220600 02006KT P6SM VCSH OVC045
     FM221000 02005KT 6SM SHRA OVC025
     FM221800 03006KT 6SM SHRA OVC035=

USA.gov is the U.S. government's official web portal to all federal, state and local government web resources and services.